LIBDLIBN

Guest
Details From LIBD - Bari Palese Macchie
To LIBN - LECCE
Flight Number -
Tags decoded
Created
Modified
Stats Distance 89 nm / 165 km
Max Altitude 0 ft / 0 m
Waypoints 4
Social Downloads 3
Likes 0
Share VATSIM

Download

Looking for another format? Having issues loading an existing format? Contact us
Advertisement - Login to hide

Notes

Requested: LIBD DOLON L612 BRD LIBN

Route

LIBD DOLON L612 BRD LIBN

ID Type Via Altitude Latitude Longitude Leg Dist Tot Dist Heading (true) Name
O LIBD APT - 0 ft / 0 m 41.13787˚ 16.75832˚ - 0 nm - Bari Palese Macchie
DOLON FIX - 0 ft / 0 m 40.88917˚ 17.59444˚ 40 nm 40 nm 111° / 112° -
BRD NDB L612 (AWY-LO) 0 ft / 0 m 40.60556˚ 18.00889˚ 25 nm 66 nm 132° / 132° BRINDISI NDB
O LIBN APT - 0 ft / 0 m 40.23898˚ 18.13309˚ 22 nm 88 nm 165° / 166° LECCE

Altitude Profile

Advertisement - Login to hide

LIBD

Details ICAO LIBD (BRI)
Name Bari Palese Macchie
Region Italy
Timezone Europe/Rome (UTC+1.0)
Stats Elevation 177 ft / 54 m (AMSL)
Location 41.137865° 16.758318°
Runways 1
Magnetic Variation 3.737° E

METAR

LIBD 131650Z 24005KT 9999 RA FEW030 SCT045 11/10 Q1017

Decode

TAF

TAF AMD LIBD 131333Z 1313/1412 30012KT 9999 SCT030 TEMPO 1312/1318 RA

Decode

Departure Runways

ID Width Length Bearing (true) Bearing (mag) Surface Threshold Offset Overrun Length
07 148 ft / 45 m 9,262 ft / 2,823 m 69.39° 65.65° Asphalt 1,257 ft / 383 m 0 ft / 0 m
25 148 ft / 45 m 9,262 ft / 2,823 m 249.42° 245.68° Asphalt 0 ft / 0 m 194 ft / 59 m

LIBN

Details ICAO LIBN (LCC)
Name LECCE
Region Italy
Timezone Europe/Rome (UTC+1.0)
Stats Elevation 156 ft / 48 m (AMSL)
Location 40.238982° 18.133091°
Runways 1
Magnetic Variation 3.885° E

METAR

LIBN 131655Z VRB03KT 9999 FEW025 14/13 Q1017 RMK BKN SCT090 BKN180 VIS MIN 9999 WIND THR14 VRB03KT WIND THR32 VRB03KT BLU

Decode

TAF

Not found

Destination Runways

ID Width Length Bearing (true) Bearing (mag) Surface Threshold Offset Overrun Length
14 197 ft / 60 m 6,786 ft / 2,068 m 145.87° 141.98° Asphalt 197 ft / 60 m 0 ft / 0 m
32 197 ft / 60 m 6,786 ft / 2,068 m 325.87° 321.98° Asphalt 448 ft / 137 m 0 ft / 0 m

Approach Navaids

Runway Type Ident Frequency Range Bearing (true) Bearing (mag) Slope Elevation
32 Localiser GAL 111.75 MHz 18 nm / 33 km 325.84° 321.95° - 162 ft / 49 m (AMSL)
32 Glidescope GAL 111.75 MHz 10 nm / 19 km 325.87° 321.98° 3.00° 208 ft / 63 m (AMSL)
32 DME GAL 111.75 MHz 18 nm / 33 km - - - 208 ft / 63 m (AMSL)

Popular Alternatives